Time;durP1;ratioP1;P1;durP2;ratioP2;P2;SDS_P1;SDS_P2;PMS_P1;PMS_P2;Temp;Humidity;BMP_temperature;BMP_pressure;BME280_temperature;BME280_humidity;BME280_pressure;Samples;Min_cycle;Max_cycle;Signal;HPM_P1;HPM_P2
2022/08/29 00:00:37;;;;;;;10.67;7.43;;;18.00;99.90;;;;;;5002092;28;20296;-71
2022/08/29 00:03:03;;;;;;;13.98;8.65;;;18.00;99.90;;;;;;5000804;28;20037;-71
2022/08/29 00:05:33;;;;;;;13.07;8.32;;;18.00;99.90;;;;;;5002096;28;20329;-72
2022/08/29 00:08:00;;;;;;;10.88;8.02;;;18.00;99.90;;;;;;5004781;28;20109;-71
2022/08/29 00:10:26;;;;;;;18.10;9.15;;;17.90;99.90;;;;;;5005928;28;20026;-71
2022/08/29 00:12:52;;;;;;;13.02;8.85;;;17.90;99.90;;;;;;5004629;28;20022;-72
2022/08/29 00:15:18;;;;;;;12.87;8.67;;;17.90;99.90;;;;;;5005747;28;20059;-73
2022/08/29 00:17:43;;;;;;;13.77;8.65;;;17.90;99.90;;;;;;5005426;28;20030;-72
2022/08/29 00:20:13;;;;;;;15.47;9.47;;;17.80;99.90;;;;;;5004668;28;20042;-71
2022/08/29 00:22:39;;;;;;;13.52;8.75;;;17.90;99.90;;;;;;5005596;28;20053;-71
2022/08/29 00:25:05;;;;;;;12.37;8.57;;;17.90;99.90;;;;;;5005615;28;20030;-71
2022/08/29 00:27:32;;;;;;;13.07;9.20;;;17.80;99.90;;;;;;5005645;28;20030;-71
2022/08/29 00:29:57;;;;;;;13.43;8.27;;;17.80;99.90;;;;;;5004552;28;20038;-71
2022/08/29 00:32:23;;;;;;;12.67;8.60;;;17.80;99.90;;;;;;5004260;28;20026;-71
2022/08/29 00:34:49;;;;;;;11.37;8.53;;;17.70;99.90;;;;;;5005053;28;20045;-72
2022/08/29 00:37:15;;;;;;;16.00;9.37;;;17.70;99.90;;;;;;5004185;28;20042;-71
2022/08/29 00:39:40;;;;;;;16.37;9.80;;;17.60;99.90;;;;;;5005520;28;20068;-71
2022/08/29 00:42:06;;;;;;;11.40;9.00;;;17.60;99.90;;;;;;5005349;28;20034;-71
2022/08/29 00:44:32;;;;;;;14.07;8.60;;;17.60;99.90;;;;;;5005089;28;20169;-72
2022/08/29 00:47:02;;;;;;;16.23;9.70;;;17.60;99.90;;;;;;5005158;28;20030;-71
2022/08/29 00:49:34;;;;;;;12.82;8.68;;;17.50;99.90;;;;;;5003992;28;20370;-71
2022/08/29 00:52:06;;;;;;;14.80;9.63;;;17.50;99.90;;;;;;5004351;28;20025;-71
2022/08/29 00:54:32;;;;;;;13.93;8.45;;;17.50;99.90;;;;;;5004972;28;20229;-71
2022/08/29 00:56:58;;;;;;;11.73;8.40;;;17.50;99.90;;;;;;5003918;28;20026;-71
2022/08/29 00:59:27;;;;;;;16.97;8.97;;;17.50;99.90;;;;;;5004026;28;20026;-71
2022/08/29 01:01:54;;;;;;;11.50;9.40;;;17.50;99.90;;;;;;5003891;28;20036;-72
2022/08/29 01:04:20;;;;;;;;;;;17.40;99.90;;;;;;5005015;28;20284;-71
2022/08/29 01:06:46;;;;;;;15.48;10.30;;;17.40;99.90;;;;;;5004950;28;20197;-71
2022/08/29 01:09:11;;;;;;;16.47;9.50;;;17.40;99.90;;;;;;5004882;28;20030;-71
2022/08/29 01:14:23;;;;;;;14.20;9.13;;;17.40;99.90;;;;;;5003632;28;20033;-72
2022/08/29 01:16:48;;;;;;;14.05;9.15;;;17.30;99.90;;;;;;5003685;28;20073;-71
2022/08/29 01:19:37;;;;;;;11.80;8.97;;;17.30;99.90;;;;;;5002756;28;20030;-71
2022/08/29 01:22:28;;;;;;;14.60;9.38;;;17.30;99.90;;;;;;5003728;28;20376;-71
2022/08/29 01:24:54;;;;;;;12.13;9.45;;;17.30;99.90;;;;;;5004219;28;20041;-71
2022/08/29 01:27:28;;;;;;;13.77;9.70;;;17.30;99.90;;;;;;5003477;28;20018;-71
2022/08/29 01:29:53;;;;;;;13.77;9.70;;;17.30;99.90;;;;;;5003341;28;20026;-72
2022/08/29 01:32:19;;;;;;;15.90;10.00;;;17.20;99.90;;;;;;5002368;28;20085;-72
2022/08/29 01:34:45;;;;;;;15.00;10.50;;;17.20;99.90;;;;;;5003870;28;20026;-71
2022/08/29 01:37:12;;;;;;;12.53;9.03;;;17.20;99.90;;;;;;5004411;28;20388;-70
2022/08/29 01:39:40;;;;;;;14.43;9.77;;;17.20;99.90;;;;;;5003562;28;20110;-69
2022/08/29 01:42:19;;;;;;;14.57;9.88;;;17.20;99.90;;;;;;5004616;28;20050;-69
2022/08/29 01:44:54;;;;;;;13.85;10.02;;;17.20;99.90;;;;;;5004264;28;20030;-69
2022/08/29 01:47:20;;;;;;;14.75;9.70;;;17.10;99.90;;;;;;5004122;28;20476;-69
2022/08/29 01:49:46;;;;;;;14.73;9.20;;;17.10;99.90;;;;;;5002822;28;20309;-69
2022/08/29 01:52:12;;;;;;;13.40;9.80;;;17.10;99.90;;;;;;5004124;28;20106;-69
2022/08/29 01:54:44;;;;;;;18.63;10.33;;;17.10;99.90;;;;;;5003752;28;20218;-68
2022/08/29 01:57:10;;;;;;;15.85;10.43;;;17.10;99.90;;;;;;5003953;28;20473;-70
2022/08/29 01:59:36;;;;;;;14.75;9.82;;;17.10;99.90;;;;;;5002802;28;20022;-69
2022/08/29 02:02:17;;;;;;;13.93;9.83;;;17.10;99.90;;;;;;5003974;28;20026;-70
2022/08/29 02:04:45;;;;;;;12.80;9.18;;;17.20;99.90;;;;;;5002385;28;20088;-70
2022/08/29 02:07:12;;;;;;;13.35;10.00;;;17.20;99.90;;;;;;5003737;28;20034;-70
2022/08/29 02:09:39;;;;;;;13.43;10.32;;;17.10;99.90;;;;;;5003899;28;20170;-68
2022/08/29 02:12:06;;;;;;;15.05;10.10;;;17.10;99.90;;;;;;5002639;28;20217;-69
2022/08/29 02:14:34;;;;;;;;;;;17.10;99.90;;;;;;5003836;28;20039;-69
2022/08/29 02:17:02;;;;;;;16.00;9.75;;;17.10;99.90;;;;;;5003724;28;20105;-69
2022/08/29 02:19:28;;;;;;;13.07;9.63;;;17.10;99.90;;;;;;5002459;28;20089;-70
2022/08/29 02:21:53;;;;;;;18.03;10.70;;;17.00;99.90;;;;;;5003665;28;20094;-69
2022/08/29 02:24:19;;;;;;;12.43;10.37;;;17.00;99.90;;;;;;5003335;28;20344;-69
2022/08/29 02:26:45;;;;;;;19.10;10.70;;;16.90;99.90;;;;;;5003498;28;20333;-69
2022/08/29 02:29:11;;;;;;;13.93;9.63;;;16.90;99.90;;;;;;5003433;28;20032;-69
2022/08/29 02:31:39;;;;;;;14.68;9.80;;;16.90;99.90;;;;;;5002785;28;20060;-69
2022/08/29 02:34:05;;;;;;;19.70;10.40;;;16.90;99.90;;;;;;5001795;28;20019;-70
2022/08/29 02:36:31;;;;;;;;;;;16.90;99.90;;;;;;5003885;28;20037;-69
2022/08/29 02:38:57;;;;;;;16.15;9.85;;;16.90;99.90;;;;;;5003181;28;19909;-68
2022/08/29 02:41:23;;;;;;;20.27;9.23;;;16.80;99.90;;;;;;5003283;28;20281;-70
2022/08/29 02:43:48;;;;;;;13.10;9.83;;;16.80;99.90;;;;;;5001906;28;20396;-70
2022/08/29 02:46:16;;;;;;;13.47;10.13;;;16.80;99.90;;;;;;5003071;28;20030;-69
2022/08/29 02:48:43;;;;;;;15.30;10.20;;;16.80;99.90;;;;;;5002800;28;20053;-69
2022/08/29 02:51:09;;;;;;;13.85;10.35;;;16.80;99.90;;;;;;5001967;28;20178;-69
2022/08/29 02:53:35;;;;;;;20.00;10.50;;;16.70;99.90;;;;;;5001598;28;20030;-70
2022/08/29 02:56:01;;;;;;;15.87;10.50;;;16.70;99.90;;;;;;5003177;28;20340;-70
2022/08/29 02:58:27;;;;;;;19.33;10.97;;;16.70;99.90;;;;;;5002118;28;20256;-70
2022/08/29 03:00:53;;;;;;;15.53;9.73;;;16.60;99.90;;;;;;5002964;28;20448;-70
2022/08/29 03:03:19;;;;;;;15.13;10.43;;;16.60;99.90;;;;;;5001450;28;20378;-70
2022/08/29 03:05:45;;;;;;;16.13;9.73;;;16.60;99.90;;;;;;5001772;28;20329;-69
2022/08/29 03:08:12;;;;;;;12.80;9.97;;;16.50;99.90;;;;;;5002768;28;20034;-70
2022/08/29 03:10:39;;;;;;;12.10;9.18;;;16.50;99.90;;;;;;5018212;28;20040;-69
2022/08/29 03:13:05;;;;;;;;;;;16.50;99.90;;;;;;5003229;28;20257;-69
2022/08/29 03:15:30;;;;;;;13.60;9.23;;;16.50;99.90;;;;;;5002807;28;19968;-69
2022/08/29 03:17:57;;;;;;;14.73;9.70;;;16.50;99.90;;;;;;5002503;28;20049;-69
2022/08/29 03:20:23;;;;;;;15.93;8.73;;;16.50;99.90;;;;;;5002537;28;20018;-69
2022/08/29 03:22:49;;;;;;;15.52;10.48;;;16.40;99.90;;;;;;5002160;28;20026;-69
2022/08/29 03:25:15;;;;;;;13.88;9.75;;;16.40;99.90;;;;;;5001362;28;20022;-70
2022/08/29 03:27:41;;;;;;;12.97;9.67;;;16.40;99.90;;;;;;5002408;28;20053;-69
2022/08/29 03:30:09;;;;;;;12.57;9.60;;;16.40;99.90;;;;;;5002441;28;20253;-69
2022/08/29 03:32:35;;;;;;;16.77;10.00;;;16.40;99.90;;;;;;5002354;28;20325;-69
2022/08/29 03:35:01;;;;;;;15.90;10.10;;;16.40;99.90;;;;;;5000698;28;20030;-69
2022/08/29 03:37:27;;;;;;;14.23;10.27;;;16.40;99.90;;;;;;5002182;28;20030;-71
2022/08/29 03:39:53;;;;;;;13.77;8.77;;;16.40;99.90;;;;;;5002451;28;20423;-70
2022/08/29 03:42:19;;;;;;;18.17;9.40;;;16.40;99.90;;;;;;5003986;28;20097;-69
2022/08/29 03:44:45;;;;;;;13.37;9.63;;;16.30;99.90;;;;;;5005079;28;20022;-70
2022/08/29 03:47:10;;;;;;;14.03;9.40;;;16.30;99.90;;;;;;5006229;28;20281;-69
2022/08/29 03:49:36;;;;;;;15.00;9.87;;;16.20;99.90;;;;;;5006107;28;20022;-69
2022/08/29 03:52:03;;;;;;;14.70;9.53;;;16.20;99.90;;;;;;5006236;28;20026;-70
2022/08/29 03:54:29;;;;;;;15.77;10.15;;;16.20;99.90;;;;;;5005121;28;20081;-69
2022/08/29 03:56:55;;;;;;;13.97;10.37;;;16.20;99.90;;;;;;5006100;28;20328;-69
2022/08/29 03:59:21;;;;;;;15.17;9.70;;;16.20;99.90;;;;;;5006324;28;20469;-70
2022/08/29 04:01:47;;;;;;;14.98;9.18;;;16.10;99.90;;;;;;5006143;28;20026;-68
2022/08/29 04:07:05;;;;;;;13.07;9.85;;;16.10;99.90;;;;;;4995811;28;20261;-68
2022/08/29 04:09:31;;;;;;;12.40;8.63;;;16.10;99.90;;;;;;5005721;28;20026;-70
2022/08/29 04:11:56;;;;;;;13.70;8.50;;;16.00;99.90;;;;;;5004604;28;20026;-69
2022/08/29 04:14:22;;;;;;;15.20;9.97;;;16.00;99.90;;;;;;5005449;28;20325;-69
2022/08/29 04:16:51;;;;;;;16.90;9.87;;;16.00;99.90;;;;;;5005595;28;20038;-69
2022/08/29 04:19:18;;;;;;;14.25;9.57;;;16.00;99.90;;;;;;5005185;28;20026;-70
2022/08/29 04:21:44;;;;;;;;;;;15.90;99.90;;;;;;5006040;28;20022;-69
2022/08/29 04:24:11;;;;;;;11.77;9.18;;;16.00;99.90;;;;;;5005310;28;19905;-69
2022/08/29 04:26:37;;;;;;;14.02;9.15;;;15.90;99.90;;;;;;5004285;28;20030;-70
2022/08/29 04:29:04;;;;;;;14.20;9.97;;;15.90;99.90;;;;;;5005377;28;20037;-70
2022/08/29 04:31:30;;;;;;;10.40;8.30;;;15.90;99.90;;;;;;5005389;28;20301;-69
2022/08/29 04:33:56;;;;;;;13.83;9.23;;;15.80;99.90;;;;;;5003774;28;20104;-69
2022/08/29 04:36:22;;;;;;;14.97;8.87;;;15.80;99.90;;;;;;5005262;28;20033;-70
2022/08/29 04:38:47;;;;;;;11.30;9.13;;;15.80;99.90;;;;;;5005086;28;20033;-70
2022/08/29 04:41:13;;;;;;;15.30;9.37;;;15.80;99.90;;;;;;5005159;28;20093;-69
2022/08/29 04:43:44;;;;;;;17.37;9.30;;;15.80;99.90;;;;;;5004916;28;20333;-70
2022/08/29 04:46:10;;;;;;;13.98;8.45;;;15.80;99.90;;;;;;5005017;28;20038;-70
2022/08/29 04:48:36;;;;;;;12.57;8.03;;;15.80;99.90;;;;;;5004947;28;20022;-70
2022/08/29 04:51:01;;;;;;;13.53;8.73;;;15.70;99.90;;;;;;5005165;28;20086;-69
2022/08/29 04:53:28;;;;;;;13.63;8.43;;;15.70;99.90;;;;;;5004002;28;20025;-70
2022/08/29 04:56:07;;;;;;;12.98;8.07;;;15.70;99.90;;;;;;5005021;28;20051;-70
2022/08/29 04:58:34;;;;;;;12.63;8.15;;;15.70;99.90;;;;;;5004969;28;20030;-69
2022/08/29 05:01:01;;;;;;;14.27;7.43;;;15.70;99.90;;;;;;5004961;28;20030;-70
2022/08/29 05:03:27;;;;;;;16.10;7.95;;;15.70;99.90;;;;;;5004399;28;20038;-69
2022/08/29 05:05:57;;;;;;;10.83;7.30;;;15.70;99.90;;;;;;5003761;28;20049;-70
2022/08/29 05:08:23;;;;;;;12.77;6.82;;;15.70;99.90;;;;;;5003746;28;20033;-70
2022/08/29 05:10:49;;;;;;;11.30;6.53;;;15.70;99.90;;;;;;5004892;28;20225;-70
2022/08/29 05:13:14;;;;;;;9.53;6.30;;;15.70;99.90;;;;;;5004499;28;20061;-70
2022/08/29 05:15:40;;;;;;;12.57;6.70;;;15.70;99.90;;;;;;5004755;28;20317;-69
2022/08/29 05:18:06;;;;;;;9.83;6.33;;;15.70;99.90;;;;;;5004774;28;20025;-71
2022/08/29 05:20:32;;;;;;;10.83;5.97;;;15.80;99.90;;;;;;5004453;28;20029;-70
2022/08/29 05:22:58;;;;;;;9.50;6.47;;;15.80;99.90;;;;;;5004342;28;20073;-69
2022/08/29 05:25:24;;;;;;;12.63;6.63;;;15.70;99.90;;;;;;5003363;28;20322;-70
2022/08/29 05:27:50;;;;;;;12.87;6.77;;;15.80;99.90;;;;;;5004299;28;20025;-69
2022/08/29 05:30:16;;;;;;;10.40;6.30;;;15.80;99.90;;;;;;5003274;28;20022;-68
2022/08/29 05:32:41;;;;;;;10.40;6.65;;;15.80;99.90;;;;;;5004271;28;20024;-68
2022/08/29 05:35:08;;;;;;;15.00;6.60;;;15.80;99.90;;;;;;5002914;28;20225;-70
2022/08/29 05:37:33;;;;;;;11.65;6.20;;;15.80;99.90;;;;;;4998377;28;20031;-69
2022/08/29 05:40:00;;;;;;;12.57;6.87;;;15.80;99.90;;;;;;4989368;28;20062;-69
2022/08/29 05:42:26;;;;;;;10.73;5.95;;;15.80;99.90;;;;;;5003010;28;20045;-68
2022/08/29 05:44:52;;;;;;;12.15;6.75;;;15.80;99.90;;;;;;5004008;28;20030;-69
2022/08/29 05:47:18;;;;;;;13.47;6.03;;;15.80;99.90;;;;;;5002970;28;20045;-69
2022/08/29 05:49:44;;;;;;;11.20;6.40;;;15.80;99.90;;;;;;5003028;28;20086;-69
2022/08/29 05:52:11;;;;;;;15.43;7.22;;;15.90;99.90;;;;;;5004144;28;20268;-69
2022/08/29 05:54:38;;;;;;;10.27;5.22;;;15.90;99.90;;;;;;5003890;28;20030;-70
2022/08/29 05:57:05;;;;;;;12.25;5.57;;;16.00;99.90;;;;;;5003877;28;20022;-69
2022/08/29 05:59:31;;;;;;;9.70;5.53;;;16.00;99.90;;;;;;5001206;28;20026;-70
2022/08/29 06:01:57;;;;;;;17.40;6.27;;;16.10;99.90;;;;;;5002953;28;20072;-69
2022/08/29 06:04:23;;;;;;;10.60;6.07;;;16.20;99.90;;;;;;5002152;28;20037;-69
2022/08/29 06:06:49;;;;;;;6.87;4.90;;;16.20;99.90;;;;;;5000817;28;20038;-69
2022/08/29 06:09:15;;;;;;;9.60;5.28;;;16.30;99.90;;;;;;4994199;28;20022;-69
2022/08/29 06:11:44;;;;;;;7.97;4.90;;;16.30;99.90;;;;;;4988407;28;20069;-69
2022/08/29 06:14:10;;;;;;;8.52;4.55;;;16.40;99.90;;;;;;4980648;28;20014;-69
2022/08/29 06:16:35;;;;;;;13.30;5.43;;;16.50;99.90;;;;;;4986380;28;20061;-69
2022/08/29 06:19:01;;;;;;;13.80;5.37;;;16.60;99.90;;;;;;5002716;28;20022;-72
2022/08/29 06:21:27;;;;;;;9.23;4.87;;;16.60;99.90;;;;;;4983563;28;20022;-71
2022/08/29 06:23:53;;;;;;;7.67;5.27;;;16.60;99.90;;;;;;4982193;28;20065;-72
2022/08/29 06:26:19;;;;;;;8.97;4.27;;;16.70;99.90;;;;;;4982666;28;20061;-71
2022/08/29 06:28:45;;;;;;;7.83;4.80;;;16.70;99.90;;;;;;4983762;28;20022;-71
2022/08/29 06:31:26;;;;;;;8.13;5.07;;;16.70;99.90;;;;;;4982007;28;20033;-71
2022/08/29 06:33:55;;;;;;;7.38;4.50;;;16.70;99.90;;;;;;4963020;29;20255;-72
2022/08/29 06:36:21;;;;;;;6.60;4.50;;;16.80;99.90;;;;;;4978656;28;20038;-71
2022/08/29 06:38:47;;;;;;;9.37;4.70;;;16.80;99.90;;;;;;4983403;28;20106;-71
2022/08/29 06:41:14;;;;;;;9.43;4.80;;;16.90;99.90;;;;;;4997789;28;20038;-71
2022/08/29 06:43:40;;;;;;;7.55;3.80;;;16.90;99.90;;;;;;5001633;28;20026;-71
2022/08/29 06:46:07;;;;;;;8.50;4.23;;;16.90;99.90;;;;;;4993518;28;20023;-71
2022/08/29 06:48:33;;;;;;;10.45;5.30;;;17.00;99.90;;;;;;4982828;28;20030;-71
2022/08/29 06:51:02;;;;;;;12.10;5.00;;;17.00;99.90;;;;;;4982716;28;20034;-70
2022/08/29 06:53:28;;;;;;;6.65;4.35;;;17.00;99.90;;;;;;4982415;28;20050;-70
2022/08/29 06:55:54;;;;;;;8.87;4.87;;;17.10;99.90;;;;;;4983503;28;20222;-72
2022/08/29 06:58:20;;;;;;;10.07;4.43;;;17.10;99.90;;;;;;4982491;28;20027;-72
2022/08/29 07:00:46;;;;;;;8.30;4.50;;;17.20;99.90;;;;;;4982504;28;20330;-71
2022/08/29 07:03:12;;;;;;;6.83;4.37;;;17.20;99.90;;;;;;4983381;28;20326;-72
2022/08/29 07:05:38;;;;;;;8.88;4.55;;;17.30;99.90;;;;;;4983454;28;20222;-71
2022/08/29 07:08:03;;;;;;;10.00;4.77;;;17.30;99.90;;;;;;4999303;28;20034;-71
2022/08/29 07:10:29;;;;;;;6.90;3.90;;;17.40;99.90;;;;;;5002956;28;20022;-71
2022/08/29 07:12:55;;;;;;;10.77;4.57;;;17.40;99.90;;;;;;5002578;28;20084;-71
2022/08/29 07:15:21;;;;;;;11.37;4.13;;;17.50;99.90;;;;;;5001955;28;20286;-71
2022/08/29 07:17:48;;;;;;;11.88;4.32;;;17.50;99.90;;;;;;4995258;28;20022;-71
2022/08/29 07:20:14;;;;;;;9.70;4.43;;;17.60;99.90;;;;;;4982167;28;20410;-71
2022/08/29 07:22:40;;;;;;;8.73;3.58;;;17.60;99.90;;;;;;4983031;28;20229;-69
2022/08/29 07:25:07;;;;;;;7.00;4.05;;;17.70;99.90;;;;;;4983228;28;20030;-69
2022/08/29 07:27:33;;;;;;;6.40;3.55;;;17.70;99.90;;;;;;4982190;28;20252;-69
2022/08/29 07:30:01;;;;;;;10.88;4.53;;;17.80;99.90;;;;;;4967879;28;20031;-69
2022/08/29 07:32:28;;;;;;;10.80;4.10;;;17.80;99.90;;;;;;4963819;28;20369;-69
2022/08/29 07:34:53;;;;;;;7.05;3.30;;;17.90;99.90;;;;;;4963465;28;20035;-70
2022/08/29 07:37:19;;;;;;;9.17;3.70;;;17.90;99.90;;;;;;4984792;28;20101;-69
2022/08/29 07:39:45;;;;;;;14.17;4.03;;;18.00;99.90;;;;;;5002780;28;20033;-69
2022/08/29 07:42:10;;;;;;;8.63;4.13;;;18.10;99.90;;;;;;5001892;28;20343;-70
2022/08/29 07:44:36;;;;;;;9.37;4.13;;;18.10;99.90;;;;;;5002421;28;20332;-69
2022/08/29 07:47:02;;;;;;;9.03;4.47;;;18.20;99.90;;;;;;5002527;28;20033;-70
2022/08/29 07:49:30;;;;;;;8.30;3.33;;;18.20;99.90;;;;;;5002434;28;20104;-70
2022/08/29 07:51:56;;;;;;;8.35;4.40;;;18.30;99.90;;;;;;5002401;28;20018;-69
2022/08/29 07:54:22;;;;;;;12.43;4.37;;;18.30;99.90;;;;;;5002320;28;20396;-70
2022/08/29 07:56:50;;;;;;;6.77;3.57;;;18.30;99.90;;;;;;5002553;28;20073;-70
2022/08/29 07:59:17;;;;;;;7.00;3.95;;;18.40;99.90;;;;;;5002562;28;20030;-69
2022/08/29 08:01:43;;;;;;;11.40;4.10;;;18.50;99.90;;;;;;5002505;28;20023;-68
2022/08/29 08:04:09;;;;;;;10.80;4.20;;;18.60;99.90;;;;;;5002178;28;20041;-70
2022/08/29 08:06:35;;;;;;;;;;;18.60;99.90;;;;;;5002587;28;20218;-69
2022/08/29 08:09:03;;;;;;;8.18;3.63;;;18.70;99.90;;;;;;5002644;28;19905;-69
2022/08/29 08:11:29;;;;;;;7.82;3.25;;;18.80;99.90;;;;;;5002386;28;20237;-69
2022/08/29 08:13:55;;;;;;;12.00;4.13;;;18.90;99.90;;;;;;5002238;28;20026;-74
2022/08/29 08:16:22;;;;;;;7.50;3.90;;;19.00;99.90;;;;;;5001523;28;20018;-73
2022/08/29 08:18:48;;;;;;;9.68;3.65;;;19.10;99.90;;;;;;5001736;28;20106;-71
2022/08/29 08:21:14;;;;;;;7.27;3.40;;;19.10;99.90;;;;;;5002523;28;20022;-73
2022/08/29 08:23:40;;;;;;;7.63;3.20;;;19.20;99.90;;;;;;5002209;28;20065;-70
2022/08/29 08:26:07;;;;;;;9.43;3.65;;;19.20;99.90;;;;;;5002453;28;20277;-73
2022/08/29 08:28:33;;;;;;;10.13;3.78;;;19.20;99.90;;;;;;5001734;28;20042;-71
2022/08/29 08:30:59;;;;;;;8.13;3.57;;;19.40;99.90;;;;;;5005880;28;20030;-67
2022/08/29 08:33:25;;;;;;;5.15;3.30;;;19.40;99.90;;;;;;4997069;28;20022;-68
2022/08/29 08:35:50;;;;;;;7.53;3.53;;;19.50;99.90;;;;;;4988617;28;20034;-68
2022/08/29 08:38:16;;;;;;;9.33;3.33;;;19.50;99.90;;;;;;4985912;28;20338;-72
2022/08/29 08:40:49;;;;;;;7.93;3.10;;;19.60;99.90;;;;;;4985132;28;20302;-71
2022/08/29 08:43:22;;;;;;;5.45;2.92;;;19.60;99.90;;;;;;4984833;28;20050;-72
2022/08/29 08:45:48;;;;;;;9.10;3.47;;;19.70;99.90;;;;;;4969317;28;20023;-69
2022/08/29 08:48:27;;;;;;;8.02;3.63;;;19.80;99.90;;;;;;4986271;28;20091;-69
2022/08/29 08:51:08;;;;;;;8.30;3.28;;;19.90;99.90;;;;;;4969283;28;20592;-69
2022/08/29 08:53:38;;;;;;;8.18;3.63;;;20.00;99.90;;;;;;4980262;28;20056;-68
2022/08/29 08:56:31;;;;;;;9.57;3.50;;;20.10;99.90;;;;;;4984538;28;20026;-68
2022/08/29 08:59:07;;;;;;;8.25;3.53;;;20.10;99.90;;;;;;4966341;28;20090;-68
2022/08/29 09:01:36;;;;;;;9.20;3.92;;;20.20;99.90;;;;;;4965747;28;20031;-68
2022/08/29 09:04:22;;;;;;;8.13;3.22;;;20.30;99.90;;;;;;4968836;28;20061;-68
2022/08/29 09:07:04;;;;;;;6.97;3.72;;;20.30;99.90;;;;;;4968907;28;20374;-68
2022/08/29 09:09:54;;;;;;;7.88;3.50;;;20.40;99.90;;;;;;4984602;28;20019;-67
2022/08/29 09:12:43;;;;;;;7.28;3.35;;;20.40;99.90;;;;;;4985457;28;20019;-67
2022/08/29 09:15:15;;;;;;;5.95;3.53;;;20.50;99.90;;;;;;4970730;28;20029;-68
2022/08/29 09:18:00;;;;;;;5.07;3.13;;;20.60;99.90;;;;;;4985417;28;20352;-68
2022/08/29 09:20:29;;;;;;;10.73;3.90;;;20.70;99.90;;;;;;4970000;28;20034;-68
2022/08/29 09:23:17;;;;;;;8.07;3.10;;;20.70;99.90;;;;;;4983648;28;20014;-68
2022/08/29 09:25:43;;;;;;;6.47;3.10;;;20.70;99.90;;;;;;4997745;28;20080;-67
2022/08/29 09:28:09;;;;;;;7.18;3.40;;;20.80;99.90;;;;;;4984812;28;20085;-67
2022/08/29 09:30:36;;;;;;;7.37;3.27;;;20.90;99.90;;;;;;4984967;28;20029;-68
2022/08/29 09:33:14;;;;;;;8.95;3.92;;;21.10;99.90;;;;;;4984819;28;20194;-68
2022/08/29 09:35:42;;;;;;;11.23;3.35;;;21.20;99.90;;;;;;5001414;28;20022;-68
2022/08/29 09:38:17;;;;;;;10.52;3.88;;;21.20;99.90;;;;;;5001281;28;20041;-68
2022/08/29 09:40:59;;;;;;;9.02;3.75;;;21.30;99.90;;;;;;4994630;28;20134;-68
2022/08/29 09:43:42;;;;;;;8.10;3.05;;;21.30;99.90;;;;;;5002772;28;20030;-68
2022/08/29 09:46:15;;;;;;;5.25;3.38;;;21.30;99.90;;;;;;5004158;28;20111;-67
2022/08/29 09:48:46;;;;;;;8.15;3.47;;;21.40;99.90;;;;;;5002743;28;20225;-68
2022/08/29 09:51:23;;;;;;;8.38;3.90;;;21.40;99.90;;;;;;5002887;28;20388;-67
2022/08/29 09:53:50;;;;;;;7.05;3.47;;;21.40;99.90;;;;;;4989722;28;20030;-65
2022/08/29 09:56:26;;;;;;;7.28;4.15;;;21.50;99.90;;;;;;4984567;28;20035;-70
2022/08/29 09:59:04;;;;;;;8.50;3.45;;;21.50;99.90;;;;;;4999374;28;20023;-70
2022/08/29 10:01:31;;;;;;;6.53;4.00;;;21.60;99.90;;;;;;4999370;28;20030;-70
2022/08/29 10:04:05;;;;;;;8.98;4.07;;;21.70;99.90;;;;;;4998931;28;20022;-72
2022/08/29 10:06:34;;;;;;;6.57;3.97;;;21.80;99.90;;;;;;4999238;28;20023;-72
2022/08/29 10:09:26;;;;;;;7.25;3.65;;;21.90;99.90;;;;;;4999346;28;20253;-72
2022/08/29 10:12:02;;;;;;;10.00;4.47;;;22.00;99.90;;;;;;5002868;28;20046;-72
2022/08/29 10:14:44;;;;;;;7.22;3.92;;;22.10;99.90;;;;;;5002250;28;20034;-72
2022/08/29 10:20:04;;;;;;;9.05;4.47;;;22.40;99.90;;;;;;5002758;28;20033;-72
2022/08/29 10:23:14;;;;;;;9.70;4.28;;;22.50;99.90;;;;;;5001538;28;20028;-73
2022/08/29 10:25:40;;;;;;;7.72;4.22;;;22.60;99.90;;;;;;4998590;28;20269;-76
2022/08/29 10:28:49;;;;;;;11.27;5.95;;;22.80;99.90;;;;;;4999573;28;20019;-74
2022/08/29 10:31:43;;;;;;;9.25;4.55;;;23.00;99.90;;;;;;4999272;28;20034;-76
2022/08/29 10:35:13;;;;;;;10.80;4.43;;;23.10;99.90;;;;;;4999186;28;20106;-78
2022/08/29 10:38:03;;;;;;;6.72;4.50;;;23.20;99.90;;;;;;4985921;28;20104;-73
2022/08/29 10:40:41;;;;;;;10.55;5.22;;;23.40;99.90;;;;;;4979545;28;20093;-72
2022/08/29 10:43:31;;;;;;;9.35;4.63;;;23.60;99.90;;;;;;5001827;28;20081;-73
2022/08/29 10:46:27;;;;;;;9.32;4.68;;;23.70;99.90;;;;;;5001517;28;20364;-72
2022/08/29 10:49:43;;;;;;;10.68;4.30;;;23.90;99.90;;;;;;5001904;28;20035;-72
2022/08/29 10:52:41;;;;;;;8.63;4.60;;;24.00;99.90;;;;;;5017614;28;20154;-72
2022/08/29 10:55:15;;;;;;;7.68;4.95;;;24.20;99.90;;;;;;4979126;28;20037;-71
2022/08/29 10:58:03;;;;;;;8.32;4.53;;;24.30;99.90;;;;;;4998043;28;20027;-68
2022/08/29 11:00:42;;;;;;;8.48;4.88;;;24.40;99.90;;;;;;4995524;28;20023;-69
2022/08/29 11:03:41;;;;;;;9.05;4.28;;;24.50;99.90;;;;;;4998161;28;20094;-69
2022/08/29 11:06:24;;;;;;;7.57;4.35;;;24.60;99.90;;;;;;4983252;28;20349;-68
2022/08/29 11:09:12;;;;;;;8.48;4.28;;;24.80;99.90;;;;;;4980838;28;20051;-69
2022/08/29 11:11:45;;;;;;;7.00;4.32;;;25.00;99.90;;;;;;4958067;28;20073;-70
2022/08/29 11:14:37;;;;;;;6.53;3.75;;;25.20;99.90;;;;;;4982794;28;20057;-68
2022/08/29 11:17:03;;;;;;;6.15;4.13;;;25.50;99.90;;;;;;4981764;28;20098;-69
2022/08/29 11:20:20;;;;;;;8.40;4.38;;;25.70;99.90;;;;;;4982057;28;20030;-68
2022/08/29 11:22:53;;;;;;;7.88;4.53;;;25.90;99.90;;;;;;4907840;29;20035;-69
2022/08/29 11:25:19;;;;;;;9.75;5.38;;;26.20;99.90;;;;;;4975031;28;20146;-72
2022/08/29 11:27:50;;;;;;;;;;;26.10;99.90;;;;;;4982600;28;20019;-69
2022/08/29 11:30:42;;;;;;;7.38;4.07;;;26.20;99.90;;;;;;4981776;28;19913;-67
2022/08/29 11:33:34;;;;;;;9.10;4.05;;;26.40;99.90;;;;;;4978931;28;20046;-72
2022/08/29 11:36:44;;;;;;;8.88;4.53;;;26.60;99.90;;;;;;4983201;28;20026;-72
2022/08/29 11:40:20;;;;;;;6.60;3.90;;;26.80;99.90;;;;;;4968659;28;20026;-71
2022/08/29 11:42:47;;;;;;;7.95;4.32;;;26.90;99.90;;;;;;4963218;28;20273;-72
2022/08/29 11:45:14;;;;;;;6.65;4.18;;;26.90;99.90;;;;;;4984081;28;20442;-69
2022/08/29 11:47:46;;;;;;;14.20;5.13;;;26.80;99.90;;;;;;5001196;28;20090;-71
2022/08/29 11:50:37;;;;;;;7.50;4.15;;;27.00;99.90;;;;;;5000920;28;20022;-70
2022/08/29 11:53:13;;;;;;;9.57;3.70;;;27.20;97.80;;;;;;5001059;28;20041;-70
2022/08/29 11:55:43;;;;;;;6.65;3.90;;;27.50;99.90;;;;;;5000897;28;20057;-70
2022/08/29 11:58:15;;;;;;;8.30;3.80;;;27.80;98.60;;;;;;5001180;28;20030;-73
2022/08/29 12:00:55;;;;;;;7.18;3.95;;;27.80;98.50;;;;;;5001845;28;20145;-73
2022/08/29 12:03:32;;;;;;;7.00;4.32;;;28.00;99.90;;;;;;5003615;28;20033;-70
2022/08/29 12:06:20;;;;;;;5.63;3.00;;;28.20;96.90;;;;;;5004652;28;20044;-69
2022/08/29 12:09:11;;;;;;;6.90;3.53;;;28.50;94.60;;;;;;5005727;28;20187;-70
2022/08/29 12:12:07;;;;;;;6.72;3.30;;;28.70;93.90;;;;;;4986275;28;20018;-70
2022/08/29 12:14:36;;;;;;;6.75;3.17;;;29.00;80.60;;;;;;4986347;28;20026;-70
2022/08/29 12:17:05;;;;;;;5.40;3.45;;;29.20;84.60;;;;;;4986046;28;20019;-70
2022/08/29 12:19:58;;;;;;;4.43;3.70;;;29.50;86.10;;;;;;5001012;28;20023;-70
2022/08/29 12:22:46;;;;;;;4.57;3.10;;;29.90;85.10;;;;;;5000447;28;20392;-70
2022/08/29 12:25:26;;;;;;;5.28;3.35;;;30.50;74.00;;;;;;4986114;28;20249;-70
2022/08/29 12:28:07;;;;;;;7.00;2.92;;;31.20;76.40;;;;;;4985934;28;20241;-71
2022/08/29 12:30:42;;;;;;;6.03;3.45;;;31.90;75.10;;;;;;5000601;28;20034;-70
2022/08/29 12:33:54;;;;;;;4.75;3.10;;;32.40;63.40;;;;;;5000296;28;20062;-70
2022/08/29 12:36:46;;;;;;;5.07;3.10;;;33.00;59.50;;;;;;4966131;29;20070;-71
2022/08/29 12:39:17;;;;;;;4.05;2.90;;;33.70;64.50;;;;;;4979340;28;20022;-70
2022/08/29 12:42:25;;;;;;;6.50;2.85;;;34.50;61.00;;;;;;4994361;28;20080;-71
2022/08/29 12:45:04;;;;;;;;;;;35.50;54.80;;;;;;4992688;28;20018;-68
2022/08/29 12:47:49;;;;;;;6.97;3.45;;;36.50;50.60;;;;;;5005293;28;19972;-68
2022/08/29 12:50:34;;;;;;;6.65;3.25;;;37.30;49.00;;;;;;4987758;28;20029;-68
2022/08/29 12:53:22;;;;;;;8.18;3.10;;;37.80;46.70;;;;;;5004900;28;20302;-69
2022/08/29 12:55:57;;;;;;;5.97;3.33;;;38.30;48.30;;;;;;5003967;28;20034;-69
2022/08/29 12:58:45;;;;;;;4.55;3.03;;;38.90;43.80;;;;;;4987782;28;20045;-69
2022/08/29 13:01:33;;;;;;;5.38;3.55;;;39.50;42.60;;;;;;5003904;28;20408;-69
2022/08/29 13:04:01;;;;;;;5.18;2.80;;;40.10;38.60;;;;;;4987655;28;20041;-69
2022/08/29 13:06:28;;;;;;;4.72;3.15;;;40.20;36.60;;;;;;5004431;28;20225;-70
2022/08/29 13:08:53;;;;;;;5.95;2.97;;;40.30;36.40;;;;;;4966596;28;20034;-69
2022/08/29 13:11:25;;;;;;;7.10;3.53;;;40.20;39.30;;;;;;4979393;28;20018;-69
2022/08/29 13:14:07;;;;;;;2.95;2.65;;;40.30;38.00;;;;;;4984919;28;20022;-69